Time;durP1;ratioP1;P1;durP2;ratioP2;P2;SDS_P1;SDS_P2;PMS_P1;PMS_P2;Temp;Humidity;BMP_temperature;BMP_pressure;BME280_temperature;BME280_humidity;BME280_pressure;Samples;Min_cycle;Max_cycle;Signal;HPM_P1;HPM_P2
2021/11/25 00:00:04;;;;;;;0.50;0.40;;;5.40;99.90;;;;;;5118088;28;20216;-80
2021/11/25 00:02:32;;;;;;;0.50;0.40;;;5.40;99.90;;;;;;5118518;28;20196;-80
2021/11/25 00:04:58;;;;;;;0.50;0.40;;;5.40;99.90;;;;;;5117292;28;20533;-80
2021/11/25 00:07:25;;;;;;;2.15;1.98;;;5.50;99.90;;;;;;5117996;28;20197;-80
2021/11/25 00:09:52;;;;;;;1.02;0.93;;;5.50;99.90;;;;;;5118056;28;20226;-80
2021/11/25 00:12:19;;;;;;;0.50;0.40;;;5.50;99.90;;;;;;5117737;28;20280;-80
2021/11/25 00:14:46;;;;;;;0.50;0.40;;;5.50;99.90;;;;;;5118054;28;20192;-80
2021/11/25 00:17:12;;;;;;;0.50;0.40;;;5.50;99.90;;;;;;5118219;28;20200;-80
2021/11/25 00:19:41;;;;;;;0.50;0.40;;;5.50;99.90;;;;;;5117409;28;20189;-80
2021/11/25 00:22:07;;;;;;;0.50;0.40;;;5.50;99.90;;;;;;5116879;28;20208;-79
2021/11/25 00:24:34;;;;;;;0.68;0.68;;;5.50;99.90;;;;;;5117474;28;20204;-80
2021/11/25 00:27:01;;;;;;;0.50;0.40;;;5.50;99.90;;;;;;5117644;28;20211;-80
2021/11/25 00:29:28;;;;;;;1.25;1.00;;;5.50;99.90;;;;;;5117910;28;20944;-80
2021/11/25 00:31:55;;;;;;;0.50;0.40;;;5.50;99.90;;;;;;5117565;28;20585;-80
2021/11/25 00:34:22;;;;;;;0.50;0.40;;;5.50;99.90;;;;;;5117093;28;20662;-80
2021/11/25 00:36:50;;;;;;;0.50;0.40;;;5.50;99.90;;;;;;5117479;28;20196;-80
2021/11/25 00:39:17;;;;;;;0.50;0.50;;;5.50;99.90;;;;;;5117296;28;20209;-79
2021/11/25 00:41:47;;;;;;;0.60;0.60;;;5.50;99.90;;;;;;5117568;28;20226;-80
2021/11/25 00:44:14;;;;;;;0.50;0.40;;;5.50;99.90;;;;;;5117591;28;20200;-80
2021/11/25 00:46:41;;;;;;;0.50;0.40;;;5.60;99.90;;;;;;5120408;28;20199;-80
2021/11/25 00:49:08;;;;;;;0.50;0.40;;;5.60;99.90;;;;;;5120365;28;20193;-79
2021/11/25 00:51:35;;;;;;;0.50;0.43;;;5.60;99.90;;;;;;5160665;22;20220;-79
2021/11/25 00:54:03;;;;;;;0.50;0.40;;;5.60;99.90;;;;;;5088763;28;20228;-78
2021/11/25 00:56:29;;;;;;;0.50;0.40;;;5.60;99.90;;;;;;5096958;28;20210;-78
2021/11/25 00:58:56;;;;;;;0.50;0.40;;;5.50;99.90;;;;;;5096413;28;20194;-79
2021/11/25 01:01:23;;;;;;;0.50;0.40;;;5.50;99.90;;;;;;5104253;28;20212;-78
2021/11/25 01:03:50;;;;;;;0.50;0.40;;;5.50;99.90;;;;;;5116984;28;20207;-78
2021/11/25 01:06:17;;;;;;;0.50;0.40;;;5.50;99.90;;;;;;5116908;28;20197;-79
2021/11/25 01:08:43;;;;;;;0.50;0.40;;;5.50;99.90;;;;;;5117305;28;20199;-76
2021/11/25 01:11:12;;;;;;;0.50;0.40;;;5.50;99.90;;;;;;5116688;28;20220;-76
2021/11/25 01:13:38;;;;;;;0.50;0.50;;;5.50;99.90;;;;;;5117115;28;20253;-78
2021/11/25 01:16:06;;;;;;;0.50;0.40;;;5.50;99.90;;;;;;5116736;28;20197;-78
2021/11/25 01:18:33;;;;;;;2.25;2.15;;;5.50;99.90;;;;;;5117053;28;20197;-77
2021/11/25 01:21:00;;;;;;;0.50;0.40;;;5.50;99.90;;;;;;5116182;28;20209;-78
2021/11/25 01:23:29;;;;;;;1.45;0.70;;;5.50;99.90;;;;;;5117400;28;20196;-78
2021/11/25 01:25:57;;;;;;;0.50;0.40;;;5.40;99.90;;;;;;5117016;28;20197;-78
2021/11/25 01:28:26;;;;;;;0.50;0.40;;;5.40;99.90;;;;;;5116697;28;20192;-78
2021/11/25 01:30:56;;;;;;;0.50;0.40;;;5.30;99.90;;;;;;5116223;28;20213;-78
2021/11/25 01:33:24;;;;;;;0.50;0.40;;;5.30;99.90;;;;;;5116508;28;20191;-78
2021/11/25 01:35:52;;;;;;;0.50;0.40;;;5.30;99.90;;;;;;5117237;28;20227;-78
2021/11/25 01:38:19;;;;;;;3.28;3.13;;;5.40;99.90;;;;;;5117227;28;20202;-78
2021/11/25 01:40:47;;;;;;;0.50;0.40;;;5.40;99.90;;;;;;5116269;28;20200;-78
2021/11/25 01:43:15;;;;;;;1.05;1.05;;;5.40;99.90;;;;;;5116268;28;20219;-78
2021/11/25 01:45:43;;;;;;;1.90;1.77;;;5.30;99.90;;;;;;5116266;28;20297;-78
2021/11/25 01:48:10;;;;;;;0.50;0.50;;;5.20;99.90;;;;;;5117305;28;20192;-78
2021/11/25 01:50:37;;;;;;;0.50;0.50;;;5.20;99.90;;;;;;5116736;28;20279;-78
2021/11/25 01:53:05;;;;;;;0.50;0.40;;;5.20;99.90;;;;;;5116514;28;20687;-78
2021/11/25 01:55:32;;;;;;;2.63;1.98;;;5.10;99.90;;;;;;5117058;28;20608;-78
2021/11/25 01:57:59;;;;;;;0.50;0.40;;;5.20;99.90;;;;;;5116187;28;20197;-78
2021/11/25 02:00:33;;;;;;;0.50;0.50;;;5.10;99.90;;;;;;5117088;28;20188;-78
2021/11/25 02:03:03;;;;;;;0.50;0.40;;;5.10;99.90;;;;;;5116509;28;20214;-77
2021/11/25 02:05:30;;;;;;;0.50;0.40;;;5.10;99.90;;;;;;5115960;28;20192;-76
2021/11/25 02:07:57;;;;;;;0.70;0.70;;;5.10;99.90;;;;;;5116074;28;20192;-78
2021/11/25 02:10:24;;;;;;;0.50;0.40;;;5.10;99.90;;;;;;5114310;28;20220;-78
2021/11/25 02:12:52;;;;;;;0.50;0.50;;;5.10;99.90;;;;;;5114424;28;20216;-76
2021/11/25 02:15:20;;;;;;;0.70;0.70;;;5.10;99.90;;;;;;5113891;28;20197;-78
2021/11/25 02:17:47;;;;;;;0.50;0.40;;;5.10;99.90;;;;;;5114436;28;20192;-77
2021/11/25 02:20:16;;;;;;;0.50;0.40;;;5.10;99.90;;;;;;5113857;28;20199;-78
2021/11/25 02:22:45;;;;;;;0.50;0.40;;;5.00;99.90;;;;;;5114295;28;20217;-78
2021/11/25 02:25:14;;;;;;;1.45;1.35;;;5.00;99.90;;;;;;5114528;28;20197;-77
2021/11/25 02:27:44;;;;;;;0.50;0.40;;;5.00;99.90;;;;;;5114152;28;20686;-78
2021/11/25 02:30:12;;;;;;;0.50;0.40;;;5.00;99.90;;;;;;5113664;28;20257;-78
2021/11/25 02:32:45;;;;;;;0.50;0.40;;;4.90;99.90;;;;;;5114647;28;20212;-78
2021/11/25 02:35:15;;;;;;;0.50;0.40;;;4.90;99.90;;;;;;5114599;28;20201;-78
2021/11/25 02:37:42;;;;;;;1.25;1.25;;;4.90;99.90;;;;;;5114216;28;20564;-77
2021/11/25 02:40:21;;;;;;;0.50;0.40;;;4.90;99.90;;;;;;5114382;28;20189;-78
2021/11/25 02:42:51;;;;;;;3.10;2.33;;;5.00;99.90;;;;;;5114759;28;20213;-78
2021/11/25 02:45:19;;;;;;;0.50;0.40;;;5.00;99.90;;;;;;5114681;28;20188;-76
2021/11/25 02:47:46;;;;;;;0.50;0.40;;;4.90;99.90;;;;;;5114196;28;20202;-78
2021/11/25 02:50:14;;;;;;;0.50;0.50;;;5.00;99.90;;;;;;5113855;28;20213;-77
2021/11/25 02:52:41;;;;;;;0.50;0.50;;;5.00;99.90;;;;;;5113661;28;20228;-77
2021/11/25 02:55:09;;;;;;;0.50;0.40;;;5.00;99.90;;;;;;5114586;28;20227;-79
2021/11/25 02:57:38;;;;;;;0.60;0.50;;;4.90;99.90;;;;;;5113780;28;20546;-78
2021/11/25 03:00:09;;;;;;;0.50;0.40;;;4.90;99.90;;;;;;5113973;28;20199;-76
2021/11/25 03:02:35;;;;;;;0.50;0.40;;;5.00;99.90;;;;;;5114239;28;20208;-75
2021/11/25 03:05:02;;;;;;;0.50;0.40;;;4.90;99.90;;;;;;5113616;28;20291;-77
2021/11/25 03:07:29;;;;;;;0.50;0.40;;;4.90;99.90;;;;;;5113749;28;20214;-78
2021/11/25 03:09:56;;;;;;;0.50;0.40;;;4.90;99.90;;;;;;5113675;28;20200;-78
2021/11/25 03:12:22;;;;;;;0.50;0.40;;;4.90;99.90;;;;;;5113802;28;20216;-78
2021/11/25 03:14:51;;;;;;;0.50;0.40;;;4.90;99.90;;;;;;5114288;28;20196;-77
2021/11/25 03:17:17;;;;;;;0.60;0.60;;;4.90;99.90;;;;;;5114002;28;20193;-78
2021/11/25 03:19:44;;;;;;;0.65;0.65;;;4.90;99.90;;;;;;5113275;28;20203;-78
2021/11/25 03:22:11;;;;;;;4.63;1.58;;;4.90;99.90;;;;;;5113629;28;20209;-78
2021/11/25 03:24:38;;;;;;;0.60;0.60;;;4.90;99.90;;;;;;5114162;28;20189;-75
2021/11/25 03:27:05;;;;;;;0.95;0.95;;;4.90;99.90;;;;;;5113825;28;20778;-78
2021/11/25 03:29:32;;;;;;;0.50;0.40;;;4.90;99.90;;;;;;5112574;28;20199;-78
2021/11/25 03:32:00;;;;;;;0.70;0.55;;;4.80;99.90;;;;;;5113777;28;20227;-77
2021/11/25 03:34:27;;;;;;;1.35;1.25;;;4.90;99.90;;;;;;5113911;28;20195;-78
2021/11/25 03:36:54;;;;;;;1.33;1.23;;;4.80;99.90;;;;;;5113475;28;20193;-78
2021/11/25 03:39:20;;;;;;;0.50;0.40;;;4.80;99.90;;;;;;5113379;28;20576;-77
2021/11/25 03:41:47;;;;;;;0.50;0.40;;;4.80;99.90;;;;;;5113678;28;20569;-78
2021/11/25 03:44:14;;;;;;;0.75;0.75;;;4.80;99.90;;;;;;5113797;28;20565;-78
2021/11/25 03:46:41;;;;;;;3.80;1.77;;;4.80;99.90;;;;;;5113853;28;20197;-75
2021/11/25 03:49:09;;;;;;;1.00;1.00;;;4.90;99.90;;;;;;5113423;28;20193;-78
2021/11/25 03:51:36;;;;;;;0.50;0.40;;;4.80;99.90;;;;;;5113265;28;20224;-77
2021/11/25 03:54:02;;;;;;;2.88;1.88;;;4.80;99.90;;;;;;5113445;28;20199;-78
2021/11/25 03:56:29;;;;;;;0.50;0.40;;;4.80;99.90;;;;;;5113614;28;20196;-77
2021/11/25 03:58:56;;;;;;;5.28;2.05;;;4.70;99.90;;;;;;5113924;28;20609;-77
2021/11/25 04:01:24;;;;;;;0.50;0.40;;;4.70;99.90;;;;;;5113233;28;20205;-78
2021/11/25 04:03:50;;;;;;;0.85;0.85;;;4.60;99.90;;;;;;5115910;28;20197;-78
2021/11/25 04:06:19;;;;;;;1.35;1.35;;;4.50;99.90;;;;;;5113035;28;20196;-78
2021/11/25 04:08:45;;;;;;;0.50;0.50;;;4.50;99.90;;;;;;5112926;28;20197;-77
2021/11/25 04:11:12;;;;;;;2.45;1.55;;;4.50;99.90;;;;;;5112675;28;20231;-78
2021/11/25 04:13:39;;;;;;;3.08;2.35;;;4.50;99.90;;;;;;5113096;28;20189;-78
2021/11/25 04:16:07;;;;;;;0.95;0.60;;;4.50;99.90;;;;;;5113164;28;20193;-77
2021/11/25 04:18:34;;;;;;;0.50;0.40;;;4.40;99.90;;;;;;5112766;28;20192;-78
2021/11/25 04:21:00;;;;;;;0.60;0.60;;;4.40;99.90;;;;;;5116637;28;20208;-78
2021/11/25 04:23:28;;;;;;;0.50;0.40;;;4.50;99.90;;;;;;5117027;28;20197;-78
2021/11/25 04:25:55;;;;;;;0.50;0.40;;;4.50;99.90;;;;;;5116516;28;20192;-79
2021/11/25 04:28:22;;;;;;;0.63;0.63;;;4.50;99.90;;;;;;5116781;28;20193;-78
2021/11/25 04:30:54;;;;;;;0.50;0.40;;;4.50;99.90;;;;;;5116344;28;20231;-78
2021/11/25 04:36:05;;;;;;;0.50;0.40;;;4.60;99.90;;;;;;5116891;28;20192;-78
2021/11/25 04:38:34;;;;;;;0.50;0.40;;;4.60;99.90;;;;;;5116423;28;20256;-78
2021/11/25 04:41:02;;;;;;;0.93;0.63;;;4.60;99.90;;;;;;5116082;28;20216;-78
2021/11/25 04:43:31;;;;;;;0.50;0.40;;;4.50;99.90;;;;;;5115904;28;20193;-78
2021/11/25 04:45:58;;;;;;;0.50;0.40;;;4.40;99.90;;;;;;5116195;28;20197;-78
2021/11/25 04:48:27;;;;;;;0.60;0.40;;;4.30;99.90;;;;;;5116962;28;20680;-78
2021/11/25 04:50:54;;;;;;;0.88;0.88;;;4.20;99.90;;;;;;5115495;28;20227;-78
2021/11/25 04:53:23;;;;;;;0.50;0.40;;;4.00;99.90;;;;;;5116093;28;20173;-78
2021/11/25 04:55:51;;;;;;;0.50;0.40;;;3.80;99.90;;;;;;5116432;28;20283;-78
2021/11/25 04:58:18;;;;;;;0.50;0.40;;;3.60;99.90;;;;;;5116723;28;20188;-78
2021/11/25 05:00:46;;;;;;;0.50;0.40;;;3.50;99.90;;;;;;5115789;28;20228;-77
2021/11/25 05:03:13;;;;;;;0.50;0.40;;;3.30;99.90;;;;;;5116578;28;20189;-77
2021/11/25 05:05:41;;;;;;;0.50;0.50;;;3.20;99.90;;;;;;5116382;28;20188;-77
2021/11/25 05:08:08;;;;;;;10.15;9.45;;;3.00;99.90;;;;;;5116179;28;20192;-77
2021/11/25 05:10:35;;;;;;;0.50;0.50;;;2.80;99.90;;;;;;5115387;28;20192;-78
2021/11/25 05:13:03;;;;;;;0.50;0.40;;;2.70;99.90;;;;;;5116546;28;20196;-77
2021/11/25 05:15:30;;;;;;;0.50;0.40;;;2.60;99.90;;;;;;5115791;28;20196;-78
2021/11/25 05:17:57;;;;;;;0.50;0.40;;;2.50;99.90;;;;;;5115855;28;20223;-78
2021/11/25 05:20:24;;;;;;;0.50;0.40;;;2.40;99.90;;;;;;5116038;28;20200;-77
2021/11/25 05:22:51;;;;;;;0.50;0.40;;;2.30;99.90;;;;;;5116455;28;20209;-79
2021/11/25 05:25:18;;;;;;;0.50;0.40;;;2.20;99.90;;;;;;5117067;28;20203;-79
2021/11/25 05:27:46;;;;;;;0.50;0.40;;;2.10;99.90;;;;;;5116922;28;20196;-78
2021/11/25 05:30:16;;;;;;;0.50;0.40;;;2.00;99.90;;;;;;5115937;28;20280;-78
2021/11/25 05:32:43;;;;;;;0.50;0.40;;;2.10;99.90;;;;;;5115479;28;20219;-78
2021/11/25 05:35:10;;;;;;;0.50;0.40;;;2.00;99.90;;;;;;5116739;28;20683;-78
2021/11/25 05:37:38;;;;;;;0.50;0.40;;;1.90;99.90;;;;;;5116361;28;20242;-78
2021/11/25 05:40:06;;;;;;;0.50;0.40;;;1.90;99.90;;;;;;5115974;28;20665;-78
2021/11/25 05:42:35;;;;;;;0.50;0.40;;;1.80;99.90;;;;;;5116671;28;20244;-78
2021/11/25 05:45:03;;;;;;;0.50;0.40;;;1.70;99.90;;;;;;5116186;28;20333;-78
2021/11/25 05:47:34;;;;;;;0.50;0.47;;;1.70;99.90;;;;;;5116005;28;20196;-78
2021/11/25 05:50:01;;;;;;;0.50;0.40;;;1.80;99.90;;;;;;5117035;28;20203;-79
2021/11/25 05:52:28;;;;;;;0.50;0.40;;;1.80;99.90;;;;;;5110057;27;20571;-79
2021/11/25 05:54:55;;;;;;;0.60;0.60;;;1.80;99.90;;;;;;5112021;27;20193;-78
2021/11/25 05:57:22;;;;;;;0.50;0.40;;;1.90;99.90;;;;;;5103704;28;20193;-77
2021/11/25 05:59:49;;;;;;;0.65;0.63;;;1.90;99.90;;;;;;5107869;28;20197;-77
2021/11/25 06:02:16;;;;;;;0.50;0.40;;;2.00;99.90;;;;;;5103404;27;20227;-78
2021/11/25 06:04:44;;;;;;;0.50;0.40;;;2.00;99.90;;;;;;5109252;28;20280;-78
2021/11/25 06:07:11;;;;;;;0.63;0.63;;;2.00;99.90;;;;;;5113947;28;20197;-80
2021/11/25 06:09:39;;;;;;;0.50;0.50;;;1.90;99.90;;;;;;5115829;28;20195;-78
2021/11/25 06:12:07;;;;;;;1.05;1.05;;;2.00;99.90;;;;;;5116942;28;20219;-78
2021/11/25 06:14:34;;;;;;;2.40;2.28;;;2.00;99.90;;;;;;5117391;28;20200;-79
2021/11/25 06:17:02;;;;;;;3.40;2.20;;;2.10;99.90;;;;;;5115590;28;20196;-79
2021/11/25 06:19:30;;;;;;;0.50;0.40;;;2.00;99.90;;;;;;5116488;28;20196;-78
2021/11/25 06:21:58;;;;;;;2.25;2.15;;;2.00;99.90;;;;;;5121419;28;20244;-78
2021/11/25 06:24:25;;;;;;;30.20;1.42;;;2.10;99.90;;;;;;5115381;28;20192;-78
2021/11/25 06:26:53;;;;;;;0.70;0.70;;;2.20;99.90;;;;;;5116038;28;20208;-79
2021/11/25 06:29:19;;;;;;;0.50;0.47;;;2.10;99.90;;;;;;5115842;28;20289;-79
2021/11/25 06:31:46;;;;;;;0.50;0.40;;;2.20;99.90;;;;;;5116309;28;20213;-79
2021/11/25 06:34:13;;;;;;;0.57;0.57;;;2.20;99.90;;;;;;5117935;28;20195;-78
2021/11/25 06:36:40;;;;;;;0.82;0.82;;;2.20;99.90;;;;;;5116489;28;20196;-80
2021/11/25 06:39:09;;;;;;;0.50;0.50;;;2.20;99.90;;;;;;5115619;28;20381;-79
2021/11/25 06:41:36;;;;;;;0.50;0.40;;;2.30;99.90;;;;;;5115500;28;20208;-76
2021/11/25 06:44:03;;;;;;;2.90;2.70;;;2.30;99.90;;;;;;5115453;28;20215;-79
2021/11/25 06:46:30;;;;;;;6.38;1.77;;;2.20;99.90;;;;;;5115519;28;20196;-79
2021/11/25 06:48:56;;;;;;;0.50;0.40;;;2.20;99.90;;;;;;5114889;28;20200;-79
2021/11/25 06:51:23;;;;;;;0.50;0.40;;;2.20;99.90;;;;;;5114171;28;20224;-79
2021/11/25 06:53:50;;;;;;;0.50;0.40;;;2.10;99.90;;;;;;5129633;22;20308;-79
2021/11/25 06:56:18;;;;;;;2.10;2.00;;;2.00;99.90;;;;;;5114011;28;20203;-79
2021/11/25 06:58:45;;;;;;;0.50;0.40;;;2.00;99.90;;;;;;5116033;28;20279;-77
2021/11/25 07:01:12;;;;;;;0.50;0.40;;;2.00;99.90;;;;;;5115651;28;20223;-79
2021/11/25 07:03:39;;;;;;;0.50;0.47;;;1.90;99.90;;;;;;5128158;27;20722;-79
2021/11/25 07:06:06;;;;;;;1.48;1.40;;;1.90;99.90;;;;;;5132809;27;20655;-78
2021/11/25 07:08:33;;;;;;;4.30;2.15;;;1.90;99.90;;;;;;5132890;27;20198;-77
2021/11/25 07:10:59;;;;;;;0.50;0.40;;;1.80;99.90;;;;;;5133079;27;20556;-79
2021/11/25 07:13:28;;;;;;;1.13;1.02;;;1.80;99.90;;;;;;5133090;27;20219;-78
2021/11/25 07:15:56;;;;;;;2.35;1.05;;;1.80;99.90;;;;;;5133309;27;20198;-76
2021/11/25 07:18:23;;;;;;;0.73;0.70;;;1.80;99.90;;;;;;5133006;27;20198;-79
2021/11/25 07:20:49;;;;;;;0.50;0.40;;;1.80;99.90;;;;;;5132384;27;20664;-78
2021/11/25 07:23:16;;;;;;;0.47;0.40;;;1.80;99.90;;;;;;5132344;27;20211;-78
2021/11/25 07:25:43;;;;;;;0.50;0.45;;;1.80;99.90;;;;;;5133022;27;20290;-78
2021/11/25 07:28:10;;;;;;;0.50;0.40;;;1.90;99.90;;;;;;5132825;27;20195;-78
2021/11/25 07:30:38;;;;;;;0.57;0.57;;;2.00;99.90;;;;;;5132363;27;20620;-78
2021/11/25 07:33:05;;;;;;;0.50;0.40;;;2.10;99.90;;;;;;5132988;27;20216;-79
2021/11/25 07:35:32;;;;;;;1.83;1.75;;;2.10;99.90;;;;;;5132733;28;20202;-78
2021/11/25 07:38:00;;;;;;;2.08;1.65;;;2.20;99.90;;;;;;5132384;28;20281;-74
2021/11/25 07:40:27;;;;;;;0.43;0.43;;;2.20;99.90;;;;;;5132577;28;20227;-79
2021/11/25 07:42:54;;;;;;;1.40;1.35;;;2.30;99.90;;;;;;5133004;28;20215;-76
2021/11/25 07:45:22;;;;;;;2.83;2.72;;;2.40;99.90;;;;;;5132498;28;20215;-79
2021/11/25 07:47:50;;;;;;;1.13;1.10;;;2.50;99.90;;;;;;5133047;28;20599;-78
2021/11/25 07:50:21;;;;;;;0.50;0.40;;;2.60;99.90;;;;;;5132457;28;20188;-78
2021/11/25 07:52:48;;;;;;;0.90;0.90;;;2.70;99.90;;;;;;5132131;28;20227;-78
2021/11/25 07:55:17;;;;;;;3.70;3.40;;;2.90;99.90;;;;;;5135347;27;20568;-79
2021/11/25 07:57:44;;;;;;;1.30;1.30;;;3.00;99.90;;;;;;5136885;27;20594;-79
2021/11/25 08:00:13;;;;;;;1.35;1.35;;;3.10;99.90;;;;;;5136449;27;20195;-78
2021/11/25 08:02:41;;;;;;;1.15;1.13;;;3.30;99.90;;;;;;5136777;27;20696;-78
2021/11/25 08:05:11;;;;;;;0.50;0.40;;;3.60;99.90;;;;;;5137771;27;20202;-78
2021/11/25 08:07:40;;;;;;;0.75;0.75;;;3.90;99.90;;;;;;5138261;27;20198;-79
2021/11/25 08:10:10;;;;;;;1.52;1.40;;;4.10;99.90;;;;;;5136767;27;20278;-79
2021/11/25 08:12:37;;;;;;;0.50;0.43;;;4.10;99.90;;;;;;5136301;27;20295;-78
2021/11/25 08:15:04;;;;;;;3.75;1.30;;;4.10;99.90;;;;;;5136756;27;20286;-78
2021/11/25 08:17:31;;;;;;;4.85;4.00;;;4.10;99.90;;;;;;5136566;27;20657;-78
2021/11/25 08:19:58;;;;;;;7.03;3.03;;;4.00;99.90;;;;;;5136098;27;20683;-78
2021/11/25 08:22:26;;;;;;;2.40;2.20;;;4.10;99.90;;;;;;5135615;27;20216;-78
2021/11/25 08:24:53;;;;;;;3.55;3.25;;;4.30;99.90;;;;;;5136260;27;20192;-79
2021/11/25 08:27:20;;;;;;;0.50;0.40;;;4.70;99.90;;;;;;5136291;27;20200;-78
2021/11/25 08:29:46;;;;;;;2.35;2.25;;;5.10;99.90;;;;;;5136117;27;20192;-79
2021/11/25 08:32:13;;;;;;;4.28;3.67;;;5.20;99.90;;;;;;5135836;27;20302;-78
2021/11/25 08:34:40;;;;;;;6.20;4.03;;;5.20;99.90;;;;;;5136085;27;20192;-78
2021/11/25 08:37:07;;;;;;;3.30;3.00;;;5.00;99.90;;;;;;5136165;27;20196;-78
2021/11/25 08:39:37;;;;;;;0.50;0.50;;;5.10;99.90;;;;;;5136197;27;20191;-78
2021/11/25 08:42:05;;;;;;;0.50;0.50;;;5.10;99.90;;;;;;5136889;27;20245;-78
2021/11/25 08:44:32;;;;;;;1.42;1.33;;;5.00;99.90;;;;;;5136352;27;20192;-79
2021/11/25 08:46:59;;;;;;;1.63;1.60;;;4.90;99.90;;;;;;5136035;27;20586;-75
2021/11/25 08:49:26;;;;;;;1.65;1.55;;;4.70;99.90;;;;;;5135753;27;20203;-78
2021/11/25 08:51:53;;;;;;;1.45;1.45;;;4.50;99.90;;;;;;5134608;27;20196;-78
2021/11/25 08:54:21;;;;;;;1.92;1.83;;;4.40;99.90;;;;;;5135262;27;20656;-79
2021/11/25 08:56:51;;;;;;;0.50;0.40;;;4.40;99.90;;;;;;5135458;27;20196;-78
2021/11/25 08:59:18;;;;;;;0.50;0.40;;;4.40;99.90;;;;;;5135269;27;20195;-79
2021/11/25 09:01:45;;;;;;;4.13;3.70;;;4.40;99.90;;;;;;5135924;27;20192;-78
2021/11/25 09:04:11;;;;;;;3.72;3.42;;;4.60;99.90;;;;;;5135520;27;20575;-79
2021/11/25 09:06:38;;;;;;;2.60;2.40;;;4.50;99.90;;;;;;5134290;27;20192;-78
2021/11/25 09:09:05;;;;;;;3.00;2.58;;;4.40;99.90;;;;;;5134467;27;20214;-77
2021/11/25 09:11:35;;;;;;;5.75;1.75;;;4.40;99.90;;;;;;5135222;27;20194;-75
2021/11/25 09:14:04;;;;;;;2.13;1.95;;;4.40;99.90;;;;;;5134798;27;20261;-77
2021/11/25 09:16:31;;;;;;;6.50;3.58;;;4.40;99.90;;;;;;5135268;27;20192;-77
2021/11/25 09:18:58;;;;;;;2.75;2.58;;;4.30;99.90;;;;;;5134084;27;20673;-74
2021/11/25 09:21:25;;;;;;;1.45;1.35;;;4.20;99.90;;;;;;5135162;27;20278;-75
2021/11/25 09:23:51;;;;;;;6.38;4.35;;;4.20;99.90;;;;;;5134905;27;20212;-76
2021/11/25 09:26:20;;;;;;;3.65;3.42;;;4.20;99.90;;;;;;5134731;27;20210;-77
2021/11/25 09:28:47;;;;;;;1.98;1.88;;;4.30;99.90;;;;;;5134201;27;20653;-78
2021/11/25 09:31:18;;;;;;;3.63;2.38;;;4.40;99.90;;;;;;5134994;27;20560;-78
2021/11/25 09:33:45;;;;;;;3.88;3.58;;;4.40;99.90;;;;;;5134301;27;20219;-77
2021/11/25 09:36:12;;;;;;;5.93;5.45;;;4.30;99.90;;;;;;5134591;27;20196;-77
2021/11/25 09:38:39;;;;;;;0.70;0.70;;;4.30;99.90;;;;;;5134540;27;20192;-77
2021/11/25 09:41:05;;;;;;;5.35;2.25;;;4.40;99.90;;;;;;5133685;27;20200;-76
2021/11/25 09:43:32;;;;;;;2.45;1.30;;;4.30;99.90;;;;;;5134401;27;20216;-78
2021/11/25 09:45:59;;;;;;;1.95;1.85;;;4.20;99.90;;;;;;5134466;27;20203;-76
2021/11/25 09:48:28;;;;;;;1.80;1.42;;;4.20;99.90;;;;;;5134784;27;20347;-75
2021/11/25 09:50:56;;;;;;;5.28;3.55;;;4.20;99.90;;;;;;5133269;27;20192;-77
2021/11/25 09:53:25;;;;;;;1.25;1.17;;;4.20;99.90;;;;;;5132816;27;20216;-78
2021/11/25 09:55:54;;;;;;;3.08;2.90;;;4.20;99.90;;;;;;5133879;27;20191;-78
2021/11/25 09:58:24;;;;;;;3.90;3.60;;;4.20;99.90;;;;;;5134114;27;20199;-77
2021/11/25 10:00:54;;;;;;;6.15;2.72;;;4.20;99.90;;;;;;5134161;27;20192;-78
2021/11/25 10:03:21;;;;;;;2.55;2.38;;;4.20;99.90;;;;;;5133585;27;20208;-78
2021/11/25 10:05:52;;;;;;;0.98;0.98;;;4.20;99.90;;;;;;5134069;27;20192;-78
2021/11/25 10:08:32;;;;;;;2.25;2.15;;;4.20;99.90;;;;;;5133711;27;20172;-77
2021/11/25 10:11:05;;;;;;;1.10;1.00;;;4.10;99.90;;;;;;5133710;27;20218;-77
2021/11/25 10:13:38;;;;;;;0.55;0.55;;;4.20;99.90;;;;;;5134040;27;20427;-77
2021/11/25 10:16:09;;;;;;;1.08;0.98;;;4.20;99.90;;;;;;5134878;27;20528;-77
2021/11/25 10:18:36;;;;;;;7.43;6.90;;;4.20;99.90;;;;;;5133923;27;20192;-78
2021/11/25 10:21:08;;;;;;;5.28;3.08;;;4.10;99.90;;;;;;5133623;27;20195;-77
2021/11/25 10:23:37;;;;;;;8.02;3.47;;;4.20;99.90;;;;;;5133739;27;20243;-78
2021/11/25 10:26:06;;;;;;;6.22;5.05;;;4.20;99.90;;;;;;5134009;27;20206;-77
2021/11/25 10:28:36;;;;;;;4.65;4.07;;;4.20;99.90;;;;;;5133525;27;20592;-78
2021/11/25 10:31:07;;;;;;;6.40;5.80;;;4.20;99.90;;;;;;5134636;27;20199;-81
2021/11/25 10:33:38;;;;;;;4.18;3.88;;;4.30;99.90;;;;;;5133766;27;20219;-78
2021/11/25 10:39:08;;;;;;;4.05;3.78;;;4.50;99.90;;;;;;5132931;27;20188;-78
2021/11/25 10:41:39;;;;;;;1.92;1.83;;;4.60;99.90;;;;;;5133416;27;20183;-78
2021/11/25 10:44:24;;;;;;;4.70;4.30;;;4.60;99.90;;;;;;5133822;27;20211;-79
2021/11/25 10:46:55;;;;;;;8.48;4.80;;;4.50;99.90;;;;;;5133913;27;20188;-77
2021/11/25 10:49:34;;;;;;;3.53;2.28;;;4.50;99.90;;;;;;5132991;27;20200;-77
2021/11/25 10:52:08;;;;;;;12.80;5.22;;;4.40;99.90;;;;;;5132488;27;20172;-78
2021/11/25 10:54:35;;;;;;;1.00;1.00;;;4.50;99.90;;;;;;5133623;27;20222;-78
2021/11/25 10:57:02;;;;;;;21.17;3.92;;;4.60;99.90;;;;;;5133416;27;20199;-78
2021/11/25 10:59:37;;;;;;;1.38;1.38;;;4.70;99.90;;;;;;5133404;27;20286;-79
2021/11/25 11:02:17;;;;;;;2.75;2.53;;;4.80;99.90;;;;;;5134199;27;20586;-78
2021/11/25 11:04:45;;;;;;;7.47;1.02;;;5.10;99.90;;;;;;5133834;27;20184;-78
2021/11/25 11:07:23;;;;;;;3.15;2.60;;;5.40;99.90;;;;;;5133632;27;20195;-79
2021/11/25 11:09:50;;;;;;;7.25;6.15;;;5.40;99.90;;;;;;5133415;27;20656;-78
2021/11/25 11:12:25;;;;;;;4.43;4.00;;;5.40;99.90;;;;;;5133279;27;20223;-78
2021/11/25 11:14:55;;;;;;;4.20;3.80;;;5.40;99.90;;;;;;5133395;27;20219;-78
2021/11/25 11:17:29;;;;;;;2.17;1.98;;;5.30;99.90;;;;;;5133773;27;20221;-78
2021/11/25 11:20:15;;;;;;;1.70;1.60;;;5.20;99.90;;;;;;5133562;27;20180;-78
2021/11/25 11:22:51;;;;;;;9.82;7.63;;;5.10;99.90;;;;;;5133172;27;20216;-78
2021/11/25 11:25:20;;;;;;;2.25;2.15;;;5.00;99.90;;;;;;5133301;27;20197;-77
2021/11/25 11:27:49;;;;;;;1.50;1.45;;;5.00;99.90;;;;;;5133623;27;20192;-78
2021/11/25 11:30:16;;;;;;;7.68;5.88;;;5.00;99.90;;;;;;5131980;27;20246;-79
2021/11/25 11:32:44;;;;;;;3.90;1.88;;;5.00;99.90;;;;;;5133378;27;20291;-78
2021/11/25 11:35:11;;;;;;;19.33;6.07;;;5.10;99.90;;;;;;5133209;27;20253;-78
2021/11/25 11:37:40;;;;;;;3.83;2.83;;;5.10;99.90;;;;;;5133495;28;20568;-78
2021/11/25 11:40:10;;;;;;;5.63;5.28;;;5.20;99.90;;;;;;5132822;28;20556;-79
2021/11/25 11:42:38;;;;;;;5.30;3.38;;;5.30;99.90;;;;;;5133308;28;20222;-78
2021/11/25 11:45:06;;;;;;;3.72;3.42;;;5.40;99.90;;;;;;5132721;28;20203;-78
2021/11/25 11:47:33;;;;;;;3.20;2.45;;;5.40;99.90;;;;;;5133615;28;20246;-79
2021/11/25 11:50:02;;;;;;;8.07;6.00;;;5.40;99.90;;;;;;5134274;28;20243;-79
2021/11/25 11:52:29;;;;;;;6.22;4.97;;;5.40;99.90;;;;;;5135252;28;20231;-80
2021/11/25 11:54:59;;;;;;;5.05;4.70;;;5.30;99.90;;;;;;5136137;28;20220;-76
2021/11/25 11:57:40;;;;;;;13.20;6.90;;;5.30;99.90;;;;;;5136584;28;20191;-79
2021/11/25 12:00:28;;;;;;;3.20;2.45;;;5.30;99.90;;;;;;5135633;28;20180;-79
2021/11/25 12:02:57;;;;;;;4.07;3.78;;;5.30;99.90;;;;;;5103382;28;20213;-78
2021/11/25 12:05:50;;;;;;;2.85;1.83;;;5.40;99.90;;;;;;5104951;28;20597;-80
2021/11/25 12:08:42;;;;;;;2.55;2.10;;;5.50;99.90;;;;;;5105832;28;20661;-80
2021/11/25 12:11:11;;;;;;;3.88;2.80;;;5.60;99.90;;;;;;5104307;28;20196;-79
2021/11/25 12:14:00;;;;;;;7.50;5.70;;;5.70;99.90;;;;;;5095394;28;20693;-79
2021/11/25 12:16:29;;;;;;;10.70;6.75;;;5.60;99.90;;;;;;5100337;28;20292;-79
2021/11/25 12:18:58;;;;;;;16.08;3.63;;;5.40;99.90;;;;;;5104213;28;20204;-78
2021/11/25 12:21:35;;;;;;;6.35;4.85;;;5.30;99.90;;;;;;5099809;28;20209;-77
2021/11/25 12:24:12;;;;;;;6.07;5.45;;;5.30;99.90;;;;;;5098682;28;20570;-79
2021/11/25 12:27:12;;;;;;;7.75;6.10;;;5.30;99.90;;;;;;5091351;28;20208;-79
2021/11/25 12:29:49;;;;;;;2.00;1.40;;;5.30;99.90;;;;;;5091160;28;20193;-78
2021/11/25 12:32:40;;;;;;;1.10;1.10;;;5.20;99.90;;;;;;5091977;28;20213;-77
2021/11/25 12:35:38;;;;;;;5.53;5.00;;;5.30;99.90;;;;;;5098713;28;20304;-78
2021/11/25 12:38:06;;;;;;;6.28;4.97;;;5.40;99.90;;;;;;5091195;28;20200;-76
2021/11/25 12:40:52;;;;;;;12.10;4.60;;;5.40;99.90;;;;;;5091972;28;20285;-78
2021/11/25 12:43:20;;;;;;;1.45;1.35;;;5.30;99.90;;;;;;5091496;28;20221;-78
2021/11/25 12:45:50;;;;;;;0.70;0.70;;;5.30;99.90;;;;;;5095177;28;20200;-77
2021/11/25 12:48:26;;;;;;;0.68;0.68;;;5.30;99.90;;;;;;5095065;28;20189;-78
2021/11/25 12:50:56;;;;;;;5.30;5.05;;;5.30;99.90;;;;;;5094962;28;20182;-78
2021/11/25 12:53:28;;;;;;;1.38;1.27;;;5.30;99.90;;;;;;5094260;28;20271;-78
2021/11/25 12:56:01;;;;;;;8.60;7.80;;;5.20;99.90;;;;;;5094434;28;20189;-78
2021/11/25 12:58:44;;;;;;;10.75;5.05;;;5.00;99.90;;;;;;5094561;28;20193;-78
2021/11/25 13:01:16;;;;;;;7.35;4.00;;;4.90;99.90;;;;;;5095256;28;20205;-75
2021/11/25 13:03:43;;;;;;;4.38;4.18;;;4.90;99.90;;;;;;5094463;28;20550;-77
2021/11/25 13:06:11;;;;;;;3.00;2.05;;;4.70;99.90;;;;;;5094466;28;20201;-77
2021/11/25 13:08:40;;;;;;;4.57;4.10;;;4.60;99.90;;;;;;5094575;28;20189;-77
2021/11/25 13:11:15;;;;;;;8.00;7.50;;;4.50;99.90;;;;;;5114172;27;20200;-74